QTR806 OTHH-RJAA
Flight info
| Callsign | QTR806 |
|---|---|
| Flight time | N/A |
| Altitude | 31000 |
| Route | BUNDU B415 KUGTO Q415 TONVO A777 NADSO B505 PG G325 PURPA/K0896S0945 W112 TUSLI W187 IBANO B215 NUKTI W66 DKO W69 HUR B339 LADIX W34 VAPGU W100 ORAVA W201 UNSEK A326 DOBGA DCT DONVO G597 AGAVO/N0465F310 Y644 EGOBA Y697 LANAT Y51 SAMON Y517 ESKAS Y303 ENTAK Y30 SWAMP |
| Aircraft | B77W/H-SDE1E2E3FGHIJ2J3J4J5M1RWXY/LB1D1 |
Departure
| Time | 2026-02-18 07:37 |
|---|---|
| Airport | Hamad International Airport (OTHH) |
Arrival
| Time | N/A |
|---|---|
| Airport | Narita International Airport (RJAA) |
| Time | Latitude | Longitude | Altitude | Speed | Heading |
|---|---|---|---|---|---|
| 2026-02-18 07:18 | 25.26767 | 51.60679 | 35 ft | 0 kts | 23° |
| 2026-02-18 07:25 | 25.26757 | 51.60675 | 33 ft | 3 kts | 23° |
| 2026-02-18 07:26 | 25.26739 | 51.60666 | 32 ft | 3 kts | 23° |
| 2026-02-18 07:26 | 25.26720 | 51.60657 | 33 ft | 3 kts | 23° |
| 2026-02-18 07:26 | 25.26707 | 51.60650 | 33 ft | 3 kts | 15° |
| 2026-02-18 07:27 | 25.26678 | 51.60663 | 33 ft | 3 kts | 294° |
| 2026-02-18 07:27 | 25.26671 | 51.60681 | 32 ft | 1 kts | 293° |
| 2026-02-18 07:27 | 25.26670 | 51.60683 | 32 ft | 0 kts | 293° |
| 2026-02-18 07:29 | 25.26684 | 51.60628 | 30 ft | 12 kts | 272° |
| 2026-02-18 07:30 | 25.26663 | 51.60538 | 35 ft | 12 kts | 250° |
| 2026-02-18 07:30 | 25.26633 | 51.60452 | 34 ft | 12 kts | 248° |
| 2026-02-18 07:30 | 25.26641 | 51.60367 | 34 ft | 12 kts | 319° |
| 2026-02-18 07:31 | 25.26797 | 51.60298 | 34 ft | 12 kts | 338° |
| 2026-02-18 07:31 | 25.26888 | 51.60258 | 34 ft | 16 kts | 338° |
| 2026-02-18 07:31 | 25.26949 | 51.60176 | 34 ft | 16 kts | 257° |
| 2026-02-18 07:31 | 25.27010 | 51.60096 | 33 ft | 16 kts | 339° |
| 2026-02-18 07:32 | 25.27113 | 51.60052 | 33 ft | 16 kts | 338° |
| 2026-02-18 07:32 | 25.27217 | 51.60006 | 33 ft | 17 kts | 338° |
| 2026-02-18 07:32 | 25.27347 | 51.59948 | 33 ft | 24 kts | 338° |
| 2026-02-18 07:32 | 25.27513 | 51.59876 | 33 ft | 26 kts | 339° |
| 2026-02-18 07:33 | 25.27680 | 51.59803 | 33 ft | 26 kts | 339° |
| 2026-02-18 07:33 | 25.27847 | 51.59730 | 33 ft | 26 kts | 338° |
| 2026-02-18 07:33 | 25.28013 | 51.59656 | 33 ft | 26 kts | 338° |
| 2026-02-18 07:33 | 25.28180 | 51.59582 | 34 ft | 26 kts | 338° |
| 2026-02-18 07:34 | 25.28346 | 51.59508 | 34 ft | 26 kts | 338° |
| 2026-02-18 07:34 | 25.28513 | 51.59434 | 34 ft | 26 kts | 339° |
| 2026-02-18 07:34 | 25.28680 | 51.59362 | 34 ft | 26 kts | 338° |
| 2026-02-18 07:34 | 25.28846 | 51.59288 | 34 ft | 26 kts | 338° |
| 2026-02-18 07:35 | 25.28998 | 51.59220 | 33 ft | 19 kts | 337° |
| 2026-02-18 07:35 | 25.29005 | 51.59095 | 31 ft | 19 kts | 245° |
| 2026-02-18 07:35 | 25.28951 | 51.59041 | 31 ft | 3 kts | 169° |
| 2026-02-18 07:35 | 25.28937 | 51.59047 | 31 ft | 5 kts | 159° |
| 2026-02-18 07:36 | 25.28651 | 51.59171 | 32 ft | 77 kts | 158° |
| 2026-02-18 07:36 | 25.27928 | 51.59490 | 28 ft | 145 kts | 158° |
| 2026-02-18 07:36 | 25.25472 | 51.60583 | 390 ft | 209 kts | 158° |
| 2026-02-18 07:37 | 25.24119 | 51.61199 | 995 ft | 209 kts | 157° |
| 2026-02-18 07:37 | 25.22774 | 51.61804 | 1671 ft | 210 kts | 158° |
| 2026-02-18 07:37 | 25.21356 | 51.62412 | 1862 ft | 228 kts | 158° |
| 2026-02-18 07:37 | 25.19832 | 51.63067 | 2180 ft | 241 kts | 158° |
| 2026-02-18 07:38 | 25.18217 | 51.63765 | 2477 ft | 255 kts | 157° |
| 2026-02-18 07:38 | 25.17114 | 51.64246 | 2790 ft | 260 kts | 157° |
| 2026-02-18 07:38 | 25.15410 | 51.64994 | 3337 ft | 266 kts | 157° |
| 2026-02-18 07:38 | 25.13688 | 51.65752 | 3993 ft | 266 kts | 157° |
| 2026-02-18 07:39 | 25.11969 | 51.66509 | 4694 ft | 266 kts | 157° |
| 2026-02-18 07:39 | 25.10249 | 51.67267 | 5338 ft | 267 kts | 157° |
| 2026-02-18 07:39 | 25.08522 | 51.68026 | 5968 ft | 268 kts | 157° |
| 2026-02-18 07:39 | 25.06787 | 51.68788 | 6592 ft | 269 kts | 157° |
| 2026-02-18 07:40 | 25.05041 | 51.69569 | 7059 ft | 273 kts | 152° |
| 2026-02-18 07:40 | 25.03543 | 51.70853 | 7117 ft | 278 kts | 124° |
| 2026-02-18 07:40 | 25.02688 | 51.74916 | 7141 ft | 278 kts | 91° |
| 2026-02-18 07:41 | 25.02699 | 51.77049 | 7134 ft | 279 kts | 91° |
| 2026-02-18 07:41 | 25.02704 | 51.79187 | 7128 ft | 279 kts | 91° |
| 2026-02-18 07:41 | 25.02857 | 51.81296 | 7108 ft | 276 kts | 73° |
| 2026-02-18 07:41 | 25.03736 | 51.83157 | 7347 ft | 277 kts | 58° |
| 2026-02-18 07:42 | 25.04803 | 51.84951 | 7786 ft | 282 kts | 58° |
| 2026-02-18 07:42 | 25.05869 | 51.86777 | 8348 ft | 283 kts | 58° |
| 2026-02-18 07:42 | 25.06933 | 51.88600 | 8985 ft | 282 kts | 57° |
| 2026-02-18 07:42 | 25.07997 | 51.90423 | 9589 ft | 283 kts | 56° |
| 2026-02-18 07:43 | 25.09065 | 51.92252 | 10141 ft | 284 kts | 56° |
| 2026-02-18 07:43 | 25.10148 | 51.94107 | 10480 ft | 295 kts | 56° |